sensor_id;sensor_type;location;lat;lon;timestamp;pressure;altitude;pressure_sealevel;temperature;humidity
6668;BME280;3370;47.712;9.082;2023-05-25T00:01:17;97227.38;;;11.95;65.60
6668;BME280;3370;47.712;9.082;2023-05-25T00:03:43;97220.72;;;11.91;66.03
6668;BME280;3370;47.712;9.082;2023-05-25T00:06:10;97224.38;;;12.04;64.83
6668;BME280;3370;47.712;9.082;2023-05-25T00:08:38;97214.44;;;11.97;65.05
6668;BME280;3370;47.712;9.082;2023-05-25T00:11:04;97214.44;;;11.97;66.35
6668;BME280;3370;47.712;9.082;2023-05-25T00:13:30;97214.72;;;11.91;67.13
6668;BME280;3370;47.712;9.082;2023-05-25T00:15:57;97210.25;;;11.94;66.51
6668;BME280;3370;47.712;9.082;2023-05-25T00:18:23;97207.00;;;11.89;66.94
6668;BME280;3370;47.712;9.082;2023-05-25T00:20:50;97208.72;;;11.90;66.84
6668;BME280;3370;47.712;9.082;2023-05-25T00:23:19;97211.16;;;11.93;67.10
6668;BME280;3370;47.712;9.082;2023-05-25T00:25:45;97208.53;;;11.95;66.77
6668;BME280;3370;47.712;9.082;2023-05-25T00:28:12;97204.53;;;11.87;67.53
6668;BME280;3370;47.712;9.082;2023-05-25T00:30:37;97202.03;;;11.86;68.48
6668;BME280;3370;47.712;9.082;2023-05-25T00:33:03;97202.31;;;11.80;69.00
6668;BME280;3370;47.712;9.082;2023-05-25T00:35:29;97198.69;;;11.84;68.89
6668;BME280;3370;47.712;9.082;2023-05-25T00:37:55;97195.78;;;11.92;66.61
6668;BME280;3370;47.712;9.082;2023-05-25T00:40:21;97190.19;;;11.82;66.68
6668;BME280;3370;47.712;9.082;2023-05-25T00:42:47;97192.75;;;11.82;66.49
6668;BME280;3370;47.712;9.082;2023-05-25T00:45:13;97192.00;;;11.80;66.86
6668;BME280;3370;47.712;9.082;2023-05-25T00:47:39;97191.66;;;11.87;65.54
6668;BME280;3370;47.712;9.082;2023-05-25T00:50:08;97199.19;;;11.92;65.21
6668;BME280;3370;47.712;9.082;2023-05-25T00:52:34;97198.69;;;11.84;65.00
6668;BME280;3370;47.712;9.082;2023-05-25T00:55:01;97201.69;;;11.94;65.09
6668;BME280;3370;47.712;9.082;2023-05-25T00:57:29;97192.97;;;11.96;63.34
6668;BME280;3370;47.712;9.082;2023-05-25T00:59:59;97199.28;;;11.89;63.37
6668;BME280;3370;47.712;9.082;2023-05-25T01:02:26;97196.31;;;11.79;63.94
6668;BME280;3370;47.712;9.082;2023-05-25T01:04:56;97188.78;;;11.75;64.60
6668;BME280;3370;47.712;9.082;2023-05-25T01:07:26;97199.91;;;11.77;65.38
6668;BME280;3370;47.712;9.082;2023-05-25T01:09:57;97194.44;;;11.83;64.45
6668;BME280;3370;47.712;9.082;2023-05-25T01:12:28;97188.22;;;11.87;63.97
6668;BME280;3370;47.712;9.082;2023-05-25T01:14:55;97195.19;;;11.85;64.34
6668;BME280;3370;47.712;9.082;2023-05-25T01:17:21;97185.63;;;11.87;64.31
6668;BME280;3370;47.712;9.082;2023-05-25T01:19:47;97191.72;;;11.86;65.11
6668;BME280;3370;47.712;9.082;2023-05-25T01:22:34;97188.38;;;11.84;65.35
6668;BME280;3370;47.712;9.082;2023-05-25T01:25:11;97193.69;;;11.81;66.06
6668;BME280;3370;47.712;9.082;2023-05-25T01:27:52;97191.84;;;11.83;67.35
6668;BME280;3370;47.712;9.082;2023-05-25T01:30:20;97191.38;;;11.75;67.71
6668;BME280;3370;47.712;9.082;2023-05-25T01:32:49;97189.78;;;11.72;68.91
6668;BME280;3370;47.712;9.082;2023-05-25T01:35:16;97188.97;;;11.72;68.86
6668;BME280;3370;47.712;9.082;2023-05-25T01:37:45;97192.44;;;11.70;69.39
6668;BME280;3370;47.712;9.082;2023-05-25T01:40:13;97189.25;;;11.65;69.59
6668;BME280;3370;47.712;9.082;2023-05-25T01:42:40;97193.56;;;11.65;69.88
6668;BME280;3370;47.712;9.082;2023-05-25T01:45:08;97189.41;;;11.62;70.00
6668;BME280;3370;47.712;9.082;2023-05-25T01:47:57;97187.72;;;11.61;70.20
6668;BME280;3370;47.712;9.082;2023-05-25T01:53:39;97188.47;;;11.63;69.51
6668;BME280;3370;47.712;9.082;2023-05-25T01:56:08;97190.53;;;11.57;70.26
6668;BME280;3370;47.712;9.082;2023-05-25T01:58:42;97186.06;;;11.60;71.51
6668;BME280;3370;47.712;9.082;2023-05-25T02:01:09;97189.53;;;11.59;73.22
6668;BME280;3370;47.712;9.082;2023-05-25T02:03:37;97193.00;;;11.58;74.46
6668;BME280;3370;47.712;9.082;2023-05-25T02:06:04;97196.63;;;11.54;74.88
6668;BME280;3370;47.712;9.082;2023-05-25T02:08:30;97200.53;;;11.44;74.89
6668;BME280;3370;47.712;9.082;2023-05-25T02:10:56;97190.81;;;11.31;77.46
6668;BME280;3370;47.712;9.082;2023-05-25T02:13:21;97192.34;;;11.36;78.82
6668;BME280;3370;47.712;9.082;2023-05-25T02:15:47;97187.63;;;11.26;80.31
6668;BME280;3370;47.712;9.082;2023-05-25T02:18:13;97193.03;;;11.20;81.57
6668;BME280;3370;47.712;9.082;2023-05-25T02:20:42;97190.19;;;11.26;82.93
6668;BME280;3370;47.712;9.082;2023-05-25T02:23:09;97183.84;;;11.15;83.61
6668;BME280;3370;47.712;9.082;2023-05-25T02:25:34;97174.81;;;11.06;85.19
6668;BME280;3370;47.712;9.082;2023-05-25T02:28:00;97172.25;;;11.06;86.55
6668;BME280;3370;47.712;9.082;2023-05-25T02:30:26;97170.91;;;10.97;86.85
6668;BME280;3370;47.712;9.082;2023-05-25T02:32:52;97170.06;;;10.97;87.01
6668;BME280;3370;47.712;9.082;2023-05-25T02:35:18;97168.66;;;10.89;87.37
6668;BME280;3370;47.712;9.082;2023-05-25T02:37:44;97164.16;;;10.94;87.05
6668;BME280;3370;47.712;9.082;2023-05-25T02:40:11;97161.47;;;10.98;86.25
6668;BME280;3370;47.712;9.082;2023-05-25T02:42:37;97160.75;;;10.94;85.13
6668;BME280;3370;47.712;9.082;2023-05-25T02:45:04;97168.81;;;10.86;85.58
6668;BME280;3370;47.712;9.082;2023-05-25T02:47:31;97163.53;;;10.89;85.13
6668;BME280;3370;47.712;9.082;2023-05-25T02:49:56;97168.19;;;11.00;85.06
6668;BME280;3370;47.712;9.082;2023-05-25T02:52:22;97167.16;;;10.85;86.59
6668;BME280;3370;47.712;9.082;2023-05-25T02:54:50;97167.56;;;10.76;87.17
6668;BME280;3370;47.712;9.082;2023-05-25T02:57:15;97165.81;;;10.77;86.43
6668;BME280;3370;47.712;9.082;2023-05-25T02:59:41;97163.22;;;10.77;86.31
6668;BME280;3370;47.712;9.082;2023-05-25T03:02:07;97168.22;;;10.61;88.54
6668;BME280;3370;47.712;9.082;2023-05-25T03:04:33;97165.72;;;10.59;89.18
6668;BME280;3370;47.712;9.082;2023-05-25T03:07:02;97153.69;;;10.60;88.81
6668;BME280;3370;47.712;9.082;2023-05-25T03:09:28;97159.19;;;10.52;89.73
6668;BME280;3370;47.712;9.082;2023-05-25T03:11:54;97153.88;;;10.55;90.14
6668;BME280;3370;47.712;9.082;2023-05-25T03:14:20;97152.88;;;10.59;88.34
6668;BME280;3370;47.712;9.082;2023-05-25T03:16:45;97165.78;;;10.58;88.25
6668;BME280;3370;47.712;9.082;2023-05-25T03:19:11;97164.78;;;10.41;89.78
6668;BME280;3370;47.712;9.082;2023-05-25T03:21:37;97172.06;;;10.30;91.06
6668;BME280;3370;47.712;9.082;2023-05-25T03:24:03;97172.59;;;10.38;91.03
6668;BME280;3370;47.712;9.082;2023-05-25T03:26:29;97178.22;;;10.26;91.17
6668;BME280;3370;47.712;9.082;2023-05-25T03:28:56;97172.59;;;10.17;91.91
6668;BME280;3370;47.712;9.082;2023-05-25T03:31:22;97178.81;;;10.12;92.58
6668;BME280;3370;47.712;9.082;2023-05-25T03:33:48;97170.25;;;10.11;92.75
6668;BME280;3370;47.712;9.082;2023-05-25T03:36:14;97178.09;;;10.08;92.24
6668;BME280;3370;47.712;9.082;2023-05-25T03:38:43;97181.75;;;10.03;91.89
6668;BME280;3370;47.712;9.082;2023-05-25T03:41:09;97186.81;;;10.04;91.32
6668;BME280;3370;47.712;9.082;2023-05-25T03:43:35;97182.81;;;9.97;91.13
6668;BME280;3370;47.712;9.082;2023-05-25T03:46:01;97186.31;;;9.96;91.14
6668;BME280;3370;47.712;9.082;2023-05-25T03:48:26;97186.19;;;9.99;90.28
6668;BME280;3370;47.712;9.082;2023-05-25T03:50:53;97187.84;;;10.00;89.08
6668;BME280;3370;47.712;9.082;2023-05-25T03:53:19;97191.06;;;10.05;88.12
6668;BME280;3370;47.712;9.082;2023-05-25T03:55:45;97195.50;;;10.02;87.70
6668;BME280;3370;47.712;9.082;2023-05-25T03:58:11;97197.22;;;10.01;87.98
6668;BME280;3370;47.712;9.082;2023-05-25T04:00:36;97193.09;;;9.97;87.87
6668;BME280;3370;47.712;9.082;2023-05-25T04:03:03;97196.69;;;9.93;88.09
6668;BME280;3370;47.712;9.082;2023-05-25T04:05:29;97193.25;;;9.94;88.02
6668;BME280;3370;47.712;9.082;2023-05-25T04:07:55;97198.50;;;9.91;88.21
6668;BME280;3370;47.712;9.082;2023-05-25T04:10:22;97198.50;;;9.91;88.23
6668;BME280;3370;47.712;9.082;2023-05-25T04:12:47;97202.75;;;9.92;88.04
6668;BME280;3370;47.712;9.082;2023-05-25T04:15:13;97194.06;;;9.94;87.71
6668;BME280;3370;47.712;9.082;2023-05-25T04:17:39;97196.47;;;9.99;86.81
6668;BME280;3370;47.712;9.082;2023-05-25T04:20:09;97206.75;;;9.99;86.38
6668;BME280;3370;47.712;9.082;2023-05-25T04:22:35;97205.06;;;9.98;86.28
6668;BME280;3370;47.712;9.082;2023-05-25T04:25:06;97198.00;;;10.03;85.86
6668;BME280;3370;47.712;9.082;2023-05-25T04:27:32;97207.13;;;10.10;85.39
6668;BME280;3370;47.712;9.082;2023-05-25T04:29:58;97205.06;;;10.18;84.64
6668;BME280;3370;47.712;9.082;2023-05-25T04:32:25;97205.59;;;10.27;83.55
6668;BME280;3370;47.712;9.082;2023-05-25T04:34:54;97204.59;;;10.31;82.87
6668;BME280;3370;47.712;9.082;2023-05-25T04:37:22;97204.97;;;10.42;80.67
6668;BME280;3370;47.712;9.082;2023-05-25T04:39:48;97206.41;;;10.49;80.58
6668;BME280;3370;47.712;9.082;2023-05-25T04:42:14;97209.88;;;10.48;80.25
6668;BME280;3370;47.712;9.082;2023-05-25T04:44:41;97211.31;;;10.55;79.26
6668;BME280;3370;47.712;9.082;2023-05-25T04:47:07;97206.81;;;10.61;78.76
6668;BME280;3370;47.712;9.082;2023-05-25T04:49:33;97208.28;;;10.66;78.25
6668;BME280;3370;47.712;9.082;2023-05-25T04:51:59;97210.13;;;10.63;78.50
6668;BME280;3370;47.712;9.082;2023-05-25T04:54:24;97207.28;;;10.69;77.87
6668;BME280;3370;47.712;9.082;2023-05-25T04:56:50;97206.34;;;10.71;77.36
6668;BME280;3370;47.712;9.082;2023-05-25T04:59:16;97206.13;;;10.76;77.03
6668;BME280;3370;47.712;9.082;2023-05-25T05:01:42;97205.25;;;10.77;77.10
6668;BME280;3370;47.712;9.082;2023-05-25T05:04:09;97200.94;;;10.78;76.64
6668;BME280;3370;47.712;9.082;2023-05-25T05:06:35;97194.94;;;10.77;76.67
6668;BME280;3370;47.712;9.082;2023-05-25T05:09:02;97203.44;;;10.79;76.88
6668;BME280;3370;47.712;9.082;2023-05-25T05:11:28;97203.97;;;10.86;77.19
6668;BME280;3370;47.712;9.082;2023-05-25T05:13:54;97209.81;;;10.89;76.93
6668;BME280;3370;47.712;9.082;2023-05-25T05:16:21;97201.09;;;10.93;77.06
6668;BME280;3370;47.712;9.082;2023-05-25T05:18:47;97203.38;;;11.00;77.06
6668;BME280;3370;47.712;9.082;2023-05-25T05:21:13;97201.03;;;10.95;77.17
6668;BME280;3370;47.712;9.082;2023-05-25T05:23:41;97205.97;;;11.00;76.98
6668;BME280;3370;47.712;9.082;2023-05-25T05:26:07;97210.84;;;11.06;77.15
6668;BME280;3370;47.712;9.082;2023-05-25T05:28:38;97207.22;;;11.10;76.85
6668;BME280;3370;47.712;9.082;2023-05-25T05:31:04;97217.25;;;11.16;76.66
6668;BME280;3370;47.712;9.082;2023-05-25T05:33:31;97215.44;;;11.18;76.34
6668;BME280;3370;47.712;9.082;2023-05-25T05:35:57;97210.03;;;11.24;76.53
6668;BME280;3370;47.712;9.082;2023-05-25T05:38:23;97223.66;;;11.26;76.32
6668;BME280;3370;47.712;9.082;2023-05-25T05:40:49;97219.28;;;11.28;76.47
6668;BME280;3370;47.712;9.082;2023-05-25T05:43:15;97219.78;;;11.37;76.80
6668;BME280;3370;47.712;9.082;2023-05-25T05:45:42;97224.13;;;11.35;77.13
6668;BME280;3370;47.712;9.082;2023-05-25T05:48:08;97225.59;;;11.40;76.83
6668;BME280;3370;47.712;9.082;2023-05-25T05:50:37;97215.84;;;11.47;76.71
6668;BME280;3370;47.712;9.082;2023-05-25T05:53:04;97212.91;;;11.55;77.38
6668;BME280;3370;47.712;9.082;2023-05-25T05:55:31;97223.91;;;11.58;77.15
6668;BME280;3370;47.712;9.082;2023-05-25T05:57:57;97221.00;;;11.66;77.53
6668;BME280;3370;47.712;9.082;2023-05-25T06:00:23;97223.50;;;11.67;77.71
6668;BME280;3370;47.712;9.082;2023-05-25T06:02:49;97215.56;;;11.72;77.82
6668;BME280;3370;47.712;9.082;2023-05-25T06:05:16;97216.09;;;11.79;78.30
6668;BME280;3370;47.712;9.082;2023-05-25T06:07:42;97226.13;;;11.85;78.70
6668;BME280;3370;47.712;9.082;2023-05-25T06:10:08;97225.56;;;11.97;79.11
6668;BME280;3370;47.712;9.082;2023-05-25T06:12:34;97226.25;;;12.01;79.08
6668;BME280;3370;47.712;9.082;2023-05-25T06:14:59;97216.03;;;12.17;79.97
6668;BME280;3370;47.712;9.082;2023-05-25T06:17:27;97219.31;;;12.20;79.61
6668;BME280;3370;47.712;9.082;2023-05-25T06:19:52;97222.72;;;12.21;79.74
6668;BME280;3370;47.712;9.082;2023-05-25T06:22:18;97214.75;;;12.25;79.42
6668;BME280;3370;47.712;9.082;2023-05-25T06:24:44;97218.84;;;12.30;80.13
6668;BME280;3370;47.712;9.082;2023-05-25T06:27:10;97215.75;;;12.40;79.58
6668;BME280;3370;47.712;9.082;2023-05-25T06:29:37;97226.81;;;12.42;79.04
6668;BME280;3370;47.712;9.082;2023-05-25T06:32:03;97218.84;;;12.47;79.09
6668;BME280;3370;47.712;9.082;2023-05-25T06:34:29;97219.38;;;12.54;79.34
6668;BME280;3370;47.712;9.082;2023-05-25T06:36:55;97224.06;;;12.63;78.89
6668;BME280;3370;47.712;9.082;2023-05-25T06:39:21;97235.66;;;12.72;78.09
6668;BME280;3370;47.712;9.082;2023-05-25T06:41:47;97241.38;;;12.78;77.89
6668;BME280;3370;47.712;9.082;2023-05-25T06:44:13;97234.53;;;12.77;77.54
6668;BME280;3370;47.712;9.082;2023-05-25T06:46:38;97239.22;;;12.87;77.89
6668;BME280;3370;47.712;9.082;2023-05-25T06:49:04;97248.63;;;12.88;77.47
6668;BME280;3370;47.712;9.082;2023-05-25T06:51:30;97252.88;;;12.89;76.95
6668;BME280;3370;47.712;9.082;2023-05-25T06:53:57;97256.97;;;12.93;77.02
6668;BME280;3370;47.712;9.082;2023-05-25T06:56:23;97259.00;;;13.03;76.55
6668;BME280;3370;47.712;9.082;2023-05-25T06:58:49;97256.31;;;13.05;76.63
6668;BME280;3370;47.712;9.082;2023-05-25T07:01:15;97256.06;;;13.27;77.54
6668;BME280;3370;47.712;9.082;2023-05-25T07:03:42;97259.34;;;13.31;76.43
6668;BME280;3370;47.712;9.082;2023-05-25T07:06:08;97255.75;;;13.33;75.67
6668;BME280;3370;47.712;9.082;2023-05-25T07:08:36;97254.94;;;13.49;76.03
6668;BME280;3370;47.712;9.082;2023-05-25T07:11:01;97248.63;;;13.54;75.95
6668;BME280;3370;47.712;9.082;2023-05-25T07:13:27;97247.47;;;13.60;75.34
6668;BME280;3370;47.712;9.082;2023-05-25T07:15:53;97254.94;;;13.65;73.98
6668;BME280;3370;47.712;9.082;2023-05-25T07:18:19;97254.19;;;13.94;76.48
6668;BME280;3370;47.712;9.082;2023-05-25T07:20:44;97241.59;;;13.88;74.91
6668;BME280;3370;47.712;9.082;2023-05-25T07:23:11;97241.78;;;13.85;74.42
6668;BME280;3370;47.712;9.082;2023-05-25T07:25:40;97245.59;;;13.94;74.88
6668;BME280;3370;47.712;9.082;2023-05-25T07:28:06;97246.25;;;13.97;73.64
6668;BME280;3370;47.712;9.082;2023-05-25T07:30:33;97256.19;;;14.05;73.35
6668;BME280;3370;47.712;9.082;2023-05-25T07:32:59;97254.59;;;14.03;72.47
6668;BME280;3370;47.712;9.082;2023-05-25T07:35:25;97253.34;;;14.10;72.63
6668;BME280;3370;47.712;9.082;2023-05-25T07:37:59;97258.06;;;14.17;73.34
6668;BME280;3370;47.712;9.082;2023-05-25T07:40:26;97272.75;;;14.33;71.66
6668;BME280;3370;47.712;9.082;2023-05-25T07:42:52;97265.41;;;14.25;72.19
6668;BME280;3370;47.712;9.082;2023-05-25T07:45:19;97269.41;;;14.31;75.50
6668;BME280;3370;47.712;9.082;2023-05-25T07:47:46;97279.22;;;14.40;73.32
6668;BME280;3370;47.712;9.082;2023-05-25T07:50:13;97286.16;;;14.40;72.05
6668;BME280;3370;47.712;9.082;2023-05-25T07:52:38;97289.88;;;14.50;72.01
6668;BME280;3370;47.712;9.082;2023-05-25T07:55:06;97292.53;;;14.64;72.69
6668;BME280;3370;47.712;9.082;2023-05-25T07:57:32;97288.34;;;14.78;71.63
6668;BME280;3370;47.712;9.082;2023-05-25T07:59:58;97287.97;;;14.84;71.15
6668;BME280;3370;47.712;9.082;2023-05-25T08:02:23;97293.81;;;14.87;69.92
6668;BME280;3370;47.712;9.082;2023-05-25T08:04:49;97283.06;;;14.93;70.15
6668;BME280;3370;47.712;9.082;2023-05-25T08:07:17;97284.47;;;14.99;69.43
6668;BME280;3370;47.712;9.082;2023-05-25T08:09:43;97283.00;;;14.95;69.52
6668;BME280;3370;47.712;9.082;2023-05-25T08:12:09;97284.84;;;14.93;69.95
6668;BME280;3370;47.712;9.082;2023-05-25T08:14:35;97289.09;;;14.94;69.85
6668;BME280;3370;47.712;9.082;2023-05-25T08:17:00;97289.59;;;15.29;73.88
6668;BME280;3370;47.712;9.082;2023-05-25T08:19:27;97288.47;;;15.48;72.13
6668;BME280;3370;47.712;9.082;2023-05-25T08:21:55;97290.47;;;15.71;74.43
6668;BME280;3370;47.712;9.082;2023-05-25T08:24:21;97296.13;;;15.93;70.63
6668;BME280;3370;47.712;9.082;2023-05-25T08:26:47;97300.00;;;16.00;71.81
6668;BME280;3370;47.712;9.082;2023-05-25T08:29:13;97303.50;;;15.99;67.69
6668;BME280;3370;47.712;9.082;2023-05-25T08:31:39;97295.00;;;15.97;66.82
6668;BME280;3370;47.712;9.082;2023-05-25T08:34:08;97302.88;;;15.95;65.65
6668;BME280;3370;47.712;9.082;2023-05-25T08:36:34;97308.34;;;15.90;66.64
6668;BME280;3370;47.712;9.082;2023-05-25T08:39:01;97313.69;;;16.02;65.89
6668;BME280;3370;47.712;9.082;2023-05-25T08:41:28;97313.22;;;16.09;65.88
6668;BME280;3370;47.712;9.082;2023-05-25T08:43:54;97313.56;;;16.18;65.99
6668;BME280;3370;47.712;9.082;2023-05-25T08:46:29;97317.06;;;16.44;65.70
6668;BME280;3370;47.712;9.082;2023-05-25T08:49:04;97318.34;;;16.51;65.19
6668;BME280;3370;47.712;9.082;2023-05-25T08:51:36;97333.22;;;16.62;64.26
6668;BME280;3370;47.712;9.082;2023-05-25T08:54:33;97332.41;;;16.61;63.90
6668;BME280;3370;47.712;9.082;2023-05-25T08:57:24;97320.47;;;16.59;63.52
6668;BME280;3370;47.712;9.082;2023-05-25T09:00:03;97321.47;;;16.56;63.74
6668;BME280;3370;47.712;9.082;2023-05-25T09:02:49;97329.69;;;16.50;64.14
6668;BME280;3370;47.712;9.082;2023-05-25T09:05:19;97329.69;;;16.50;64.48
6668;BME280;3370;47.712;9.082;2023-05-25T09:07:45;97327.91;;;16.51;65.15
6668;BME280;3370;47.712;9.082;2023-05-25T09:10:14;97327.81;;;16.52;65.09
6668;BME280;3370;47.712;9.082;2023-05-25T09:12:41;97338.00;;;16.55;65.25
6668;BME280;3370;47.712;9.082;2023-05-25T09:15:10;97344.97;;;16.67;64.90
6668;BME280;3370;47.712;9.082;2023-05-25T09:17:35;97347.34;;;16.58;65.39
6668;BME280;3370;47.712;9.082;2023-05-25T09:20:02;97347.34;;;16.58;65.13
6668;BME280;3370;47.712;9.082;2023-05-25T09:22:28;97351.94;;;16.67;64.96
6668;BME280;3370;47.712;9.082;2023-05-25T09:24:53;97358.31;;;16.76;65.22
6668;BME280;3370;47.712;9.082;2023-05-25T09:27:22;97359.31;;;16.73;64.44
6668;BME280;3370;47.712;9.082;2023-05-25T09:29:49;97359.72;;;16.67;65.00
6668;BME280;3370;47.712;9.082;2023-05-25T09:32:17;97366.19;;;16.74;65.27
6668;BME280;3370;47.712;9.082;2023-05-25T09:34:46;97366.34;;;16.85;65.32
6668;BME280;3370;47.712;9.082;2023-05-25T09:37:15;97365.97;;;17.04;65.17
6668;BME280;3370;47.712;9.082;2023-05-25T09:39:42;97374.53;;;17.32;63.72
6668;BME280;3370;47.712;9.082;2023-05-25T09:42:09;97376.84;;;17.37;64.01
6668;BME280;3370;47.712;9.082;2023-05-25T09:44:35;97380.97;;;17.39;64.63
6668;BME280;3370;47.712;9.082;2023-05-25T09:47:02;97381.81;;;17.40;64.67
6668;BME280;3370;47.712;9.082;2023-05-25T09:49:28;97376.72;;;17.51;63.63
6668;BME280;3370;47.712;9.082;2023-05-25T09:51:54;97378.81;;;17.59;63.83
6668;BME280;3370;47.712;9.082;2023-05-25T09:54:21;97375.75;;;17.78;62.94
6668;BME280;3370;47.712;9.082;2023-05-25T09:56:47;97385.75;;;17.97;63.45
6668;BME280;3370;47.712;9.082;2023-05-25T09:59:14;97382.81;;;18.01;62.25
6668;BME280;3370;47.712;9.082;2023-05-25T10:01:40;97386.91;;;17.93;61.77
6668;BME280;3370;47.712;9.082;2023-05-25T10:04:07;97391.59;;;17.88;62.34
6668;BME280;3370;47.712;9.082;2023-05-25T10:06:33;97394.28;;;17.99;62.66
6668;BME280;3370;47.712;9.082;2023-05-25T10:08:59;97395.09;;;18.12;62.95
6668;BME280;3370;47.712;9.082;2023-05-25T10:11:27;97401.97;;;18.13;62.75
6668;BME280;3370;47.712;9.082;2023-05-25T10:13:54;97399.13;;;18.16;61.71
6668;BME280;3370;47.712;9.082;2023-05-25T10:16:26;97405.72;;;18.09;61.85
6668;BME280;3370;47.712;9.082;2023-05-25T10:19:05;97410.06;;;18.09;61.27
6668;BME280;3370;47.712;9.082;2023-05-25T10:21:32;97405.50;;;18.12;61.29
6668;BME280;3370;47.712;9.082;2023-05-25T10:24:13;97398.78;;;18.34;60.83
6668;BME280;3370;47.712;9.082;2023-05-25T10:26:49;97399.06;;;18.42;60.38
6668;BME280;3370;47.712;9.082;2023-05-25T10:29:19;97403.84;;;18.48;59.79
6668;BME280;3370;47.712;9.082;2023-05-25T10:31:46;97397.03;;;18.58;60.13
6668;BME280;3370;47.712;9.082;2023-05-25T10:34:13;97399.47;;;18.73;60.88
6668;BME280;3370;47.712;9.082;2023-05-25T10:36:40;97405.09;;;18.67;59.67
6668;BME280;3370;47.712;9.082;2023-05-25T10:39:06;97401.34;;;18.71;59.89
6668;BME280;3370;47.712;9.082;2023-05-25T10:41:33;97400.19;;;18.99;61.73
6668;BME280;3370;47.712;9.082;2023-05-25T10:44:00;97398.69;;;19.08;59.29
6668;BME280;3370;47.712;9.082;2023-05-25T10:46:27;97403.44;;;19.14;58.06
6668;BME280;3370;47.712;9.082;2023-05-25T10:48:53;97401.31;;;19.19;57.95
6668;BME280;3370;47.712;9.082;2023-05-25T10:51:41;97397.09;;;19.29;57.99
6668;BME280;3370;47.712;9.082;2023-05-25T10:54:12;97398.31;;;19.59;57.24
6668;BME280;3370;47.712;9.082;2023-05-25T10:57:27;97403.03;;;19.54;57.76
6668;BME280;3370;47.712;9.082;2023-05-25T11:00:03;97395.72;;;20.16;58.13
6668;BME280;3370;47.712;9.082;2023-05-25T11:02:51;97406.34;;;20.58;55.15
6668;BME280;3370;47.712;9.082;2023-05-25T11:16:30;97404.84;;;20.87;54.13
6668;BME280;3370;47.712;9.082;2023-05-25T11:19:01;97401.94;;;21.02;53.84
6668;BME280;3370;47.712;9.082;2023-05-25T11:23:56;97403.41;;;21.37;52.87
6668;BME280;3370;47.712;9.082;2023-05-25T11:26:31;97399.22;;;21.97;52.49
6668;BME280;3370;47.712;9.082;2023-05-25T11:28:58;97391.81;;;22.53;50.55
6668;BME280;3370;47.712;9.082;2023-05-25T11:31:32;97393.50;;;22.83;48.76
6668;BME280;3370;47.712;9.082;2023-05-25T11:34:03;97393.91;;;22.59;50.39
6668;BME280;3370;47.712;9.082;2023-05-25T11:36:30;97388.25;;;22.54;49.77
6668;BME280;3370;47.712;9.082;2023-05-25T11:39:00;97398.66;;;22.34;49.43
6668;BME280;3370;47.712;9.082;2023-05-25T11:41:30;97407.56;;;22.22;49.12
6668;BME280;3370;47.712;9.082;2023-05-25T11:44:05;97400.34;;;22.55;50.22
6668;BME280;3370;47.712;9.082;2023-05-25T11:46:32;97403.41;;;22.60;49.67
6668;BME280;3370;47.712;9.082;2023-05-25T11:48:59;97416.72;;;23.07;50.01
6668;BME280;3370;47.712;9.082;2023-05-25T11:51:27;97405.38;;;22.97;48.54
6668;BME280;3370;47.712;9.082;2023-05-25T11:53:54;97409.22;;;22.93;48.70
6668;BME280;3370;47.712;9.082;2023-05-25T11:56:20;97411.97;;;23.40;49.83
6668;BME280;3370;47.712;9.082;2023-05-25T11:58:49;97399.22;;;23.65;48.58
6668;BME280;3370;47.712;9.082;2023-05-25T12:01:21;97403.78;;;24.10;47.61
6668;BME280;3370;47.712;9.082;2023-05-25T12:03:49;97402.56;;;24.04;46.47
6668;BME280;3370;47.712;9.082;2023-05-25T12:06:31;97408.34;;;24.36;44.91
6668;BME280;3370;47.712;9.082;2023-05-25T12:09:02;97403.38;;;24.33;44.50
6668;BME280;3370;47.712;9.082;2023-05-25T12:11:36;97392.88;;;24.60;45.06
6668;BME280;3370;47.712;9.082;2023-05-25T12:14:05;97383.56;;;25.02;44.74
6668;BME280;3370;47.712;9.082;2023-05-25T12:16:33;97387.50;;;25.42;43.38
6668;BME280;3370;47.712;9.082;2023-05-25T12:19:00;97389.28;;;25.41;44.26
6668;BME280;3370;47.712;9.082;2023-05-25T12:21:26;97404.38;;;25.83;42.12
6668;BME280;3370;47.712;9.082;2023-05-25T12:23:53;97395.38;;;26.29;42.97
6668;BME280;3370;47.712;9.082;2023-05-25T12:26:19;97386.53;;;26.54;41.46
6668;BME280;3370;47.712;9.082;2023-05-25T12:29:06;97383.06;;;26.54;42.15
6668;BME280;3370;47.712;9.082;2023-05-25T12:31:34;97392.88;;;26.78;41.76
6668;BME280;3370;47.712;9.082;2023-05-25T12:34:15;97390.56;;;26.91;39.88
6668;BME280;3370;47.712;9.082;2023-05-25T12:36:46;97386.94;;;27.01;39.50
6668;BME280;3370;47.712;9.082;2023-05-25T12:39:16;97392.22;;;27.01;39.33
6668;BME280;3370;47.712;9.082;2023-05-25T12:41:48;97384.63;;;26.73;41.02
6668;BME280;3370;47.712;9.082;2023-05-25T12:44:34;97388.94;;;27.15;40.10
6668;BME280;3370;47.712;9.082;2023-05-25T12:47:21;97385.31;;;27.32;39.25
6668;BME280;3370;47.712;9.082;2023-05-25T12:49:52;97392.56;;;27.47;38.61
6668;BME280;3370;47.712;9.082;2023-05-25T12:52:35;97392.50;;;27.80;38.13
6668;BME280;3370;47.712;9.082;2023-05-25T12:57:56;97397.72;;;28.04;38.44
6668;BME280;3370;47.712;9.082;2023-05-25T13:00:37;97390.19;;;28.24;37.03
6668;BME280;3370;47.712;9.082;2023-05-25T13:03:05;97393.22;;;27.41;38.48
6668;BME280;3370;47.712;9.082;2023-05-25T13:05:35;97399.13;;;26.77;39.09
6668;BME280;3370;47.712;9.082;2023-05-25T13:08:02;97391.47;;;26.57;39.52
6668;BME280;3370;47.712;9.082;2023-05-25T13:10:30;97388.25;;;26.64;39.85
6668;BME280;3370;47.712;9.082;2023-05-25T13:12:57;97391.88;;;26.71;39.93
6668;BME280;3370;47.712;9.082;2023-05-25T13:15:25;97384.97;;;27.19;39.25
6668;BME280;3370;47.712;9.082;2023-05-25T13:17:52;97380.34;;;27.46;39.41
6668;BME280;3370;47.712;9.082;2023-05-25T13:20:21;97392.38;;;27.48;39.18
6668;BME280;3370;47.712;9.082;2023-05-25T13:22:49;97385.59;;;26.72;39.05
6668;BME280;3370;47.712;9.082;2023-05-25T13:25:15;97387.94;;;27.00;39.61
6668;BME280;3370;47.712;9.082;2023-05-25T13:27:47;97382.84;;;26.98;39.23
6668;BME280;3370;47.712;9.082;2023-05-25T13:30:14;97378.72;;;27.45;39.12
6668;BME280;3370;47.712;9.082;2023-05-25T13:32:40;97384.28;;;27.50;38.26
6668;BME280;3370;47.712;9.082;2023-05-25T13:35:08;97383.66;;;27.15;38.47
6668;BME280;3370;47.712;9.082;2023-05-25T13:37:37;97390.22;;;26.70;39.58
6668;BME280;3370;47.712;9.082;2023-05-25T13:40:03;97397.38;;;26.35;40.70
6668;BME280;3370;47.712;9.082;2023-05-25T13:42:29;97392.47;;;25.79;39.75
6668;BME280;3370;47.712;9.082;2023-05-25T13:44:56;97397.72;;;25.71;40.75
6668;BME280;3370;47.712;9.082;2023-05-25T13:47:22;97388.81;;;25.72;40.19